• Join FlightAware (Why Join?)
  • Login
  • US Flag 
07:47PM EDT


 

Airport Tracker/Info


-or-


 

Live Flight TrackerFlight Track Log ✈ UAL407 ✈ 13-May-2013 ✈ KORD - KPDX

Flight Track Log - Related Links

Times and Time Zones

All times are in EDT time to prevent confusion due to time zone crossing. See the UAL407 flight status page for this flight to view local times or setup timezone preferences in your user account.

Time Position Orientation Groundspeed Altitude Reporting Facility
EDT Latitude Longitude Course Direction KTS MPH feet Rate Location/Type
10:58PM 42.0333 -87.9667 261° West 195 224 2,700  Level Chicago TRACON
10:58PM 42.0833 -88.0000 334° Northwest 237 273 4,100 2,160 Climbing Chicago TRACON
11:00PM 41.9135 -88.4935 261° West  Level FlightAware Approximate
11:00PM 42.0875 -88.1542 272° West 265 305 9,000  Level Chicago Center
11:01PM 41.8960 -88.6431 261° West  Level FlightAware Approximate
11:01PM 42.0425 -88.2644 241° Southwest 281 323 11,600  Level Chicago Center
11:02PM 41.8785 -88.7926 261° West  Level FlightAware Approximate
11:02PM 42.0011 -88.3769 244° Southwest 330 380 12,500  Level Chicago Center
11:03PM 41.8614 -88.9422 261° West  Level FlightAware Approximate
11:03PM 41.9703 -88.5081 252° West 367 422 14,400  Level Chicago Center
11:04PM 41.9450 -88.6389 255° West 365 420 16,900 1,860 Climbing Chicago Center
11:06PM 41.9319 -88.7744 263° West 367 422 18,200 1,140 Climbing Chicago Center
11:07PM 41.9181 -88.9183 263° West 388 447 19,300 1,260 Climbing Chicago Center
11:08PM 41.9019 -89.0708 262° West 410 472 20,800 1,620 Climbing Chicago Center
11:09PM 41.8825 -89.2567 262° West 422 486 22,600 1,380 Climbing Chicago Center
11:10PM 41.8686 -89.4125 263° West 424 488 23,700 1,020 Climbing Chicago Center
11:11PM 41.8589 -89.5697 265° West 428 493 24,800 960 Climbing Chicago Center
11:12PM 41.8578 -89.7297 270° West 433 498 25,700 780 Climbing Chicago Center
11:13PM 41.8531 -89.8939 268° West 441 507 26,500 780 Climbing Chicago Center
11:14PM 41.8531 -90.0453 270° West 449 517 27,400 840 Climbing Chicago Center
11:15PM 41.8497 -90.2450 269° West 451 519 28,300 1,020 Climbing Chicago Center
11:16PM 41.8444 -90.4158 268° West 458 527 29,500 1,080 Climbing Chicago Center
11:17PM 41.8403 -90.5819 268° West 453 521 30,600 960 Climbing Chicago Center
11:18PM 41.8336 -90.7511 267° West 455 524 31,500 900 Climbing Chicago Center
11:19PM 41.8294 -90.9153 268° West 446 513 32,500 840 Climbing Chicago Center
11:20PM 41.8247 -91.0817 268° West 447 514 33,300 720 Climbing Chicago Center
11:21PM 41.8194 -91.2456 268° West 444 511 34,000 300 Climbing Chicago Center
11:22PM 41.8147 -91.4061 268° West 438 504 34,000  Level Chicago Center
11:23PM 41.8092 -91.5681 267° West 437 503 34,000  Level Chicago Center
11:24PM 41.8031 -91.7322 267° West 440 506 34,000  Level Chicago Center
11:25PM 41.7958 -91.9278 267° West 440 506 34,000  Level Chicago Center
11:26PM 41.7900 -92.0914 267° West 442 509 34,000  Level Chicago Center
11:27PM 41.7833 -92.2556 267° West 442 509 34,000  Level Chicago Center
11:28PM 41.7769 -92.4194 267° West 443 510 34,000  Level Chicago Center
11:29PM 41.7697 -92.5856 267° West 446 513 34,000  Level Chicago Center
11:29PM 41.7669 -92.6528 267° West 446 513 34,000  Level Minneapolis Center
11:30PM 41.7606 -92.8042 267° West 445 512 34,000  Level Minneapolis Center
11:31PM 41.7514 -92.9997 266° West 443 510 34,000  Level Minneapolis Center
11:32PM 41.7436 -93.1639 266° West 445 512 34,000  Level Minneapolis Center
11:33PM 41.7356 -93.3311 266° West 451 519 34,000  Level Minneapolis Center
11:34PM 41.7275 -93.4944 266° West 448 516 34,000  Level Minneapolis Center
11:35PM 41.7183 -93.6544 266° West 439 505 34,000 -60 Level Minneapolis Center
11:36PM 41.7106 -93.8175 266° West 443 510 33,900  Descending Minneapolis Center
11:37PM 41.7019 -93.9864 266° West 444 511 34,000  Climbing Minneapolis Center
11:38PM 41.6931 -94.1531 266° West 448 516 34,000  Level Minneapolis Center
11:39PM 41.6825 -94.3172 265° West 446 513 34,000  Level Minneapolis Center
11:40PM 41.6733 -94.4836 266° West 448 516 34,000  Level Minneapolis Center
11:41PM 41.6633 -94.6500 265° West 448 516 34,000  Level Minneapolis Center
11:42PM 41.6522 -94.8164 265° West 447 514 34,000  Level Minneapolis Center
11:44PM 41.6408 -95.0158 266° West 448 516 34,000  Level Minneapolis Center
11:45PM 41.6294 -95.1822 265° West 452 520 34,000  Level Minneapolis Center
11:46PM 41.6189 -95.3483 265° West 450 518 34,000  Level Minneapolis Center
11:47PM 41.6075 -95.5136 265° West 449 517 34,000  Level Minneapolis Center
11:48PM 41.5981 -95.6750 266° West 452 520 34,000  Level Minneapolis Center
11:49PM 41.5853 -95.8433 264° West 455 524 34,000  Level Minneapolis Center
11:50PM 41.5725 -96.0100 264° West 453 521 34,000  Level Minneapolis Center
11:51PM 41.5614 -96.1764 265° West 451 519 34,000  Level Minneapolis Center
11:52PM 41.5500 -96.3433 265° West 452 520 34,000  Level Minneapolis Center
11:53PM 41.5342 -96.5069 263° West 456 525 34,000  Level Minneapolis Center
11:54PM 41.5183 -96.7053 264° West 454 522 34,000  Level Minneapolis Center
11:55PM 41.5044 -96.8719 264° West 453 521 34,000  Level Minneapolis Center
11:56PM 41.4919 -97.0381 264° West 453 521 34,000  Level Minneapolis Center
11:57PM 41.4775 -97.2050 263° West 453 521 34,000  Level Minneapolis Center
11:58PM 41.4639 -97.3706 264° West 451 519 34,000  Level Minneapolis Center
11:59PM 41.4486 -97.5369 263° West 453 521 34,000  Level Minneapolis Center
12:00AM 41.4356 -97.7042 264° West 454 522 34,000  Level Minneapolis Center
12:01AM 41.4208 -97.8722 263° West 457 526 34,000  Level Minneapolis Center
12:02AM 41.4047 -98.0411 263° West 459 528 34,000  Level Minneapolis Center
12:03AM 41.3886 -98.2161 263° West 458 527 34,000  Level Minneapolis Center
12:04AM 41.3744 -98.3811 264° West 454 522 34,000  Level Minneapolis Center
12:05AM 41.3672 -98.5408 267° West 452 520 34,000  Level Minneapolis Center
12:06AM 41.3606 -98.7069 267° West 451 519 34,000  Level Minneapolis Center
12:07AM 41.3539 -98.8736 267° West 451 519 34,000  Level Minneapolis Center
12:08AM 41.3469 -99.0408 267° West 454 522 34,000  Level Denver Center
12:09AM 41.3394 -99.2072 267° West 454 522 34,000  Level Denver Center
12:10AM 41.3314 -99.3728 266° West 452 520 34,100 360 Climbing Denver Center
12:11AM 41.3231 -99.5300 266° West 450 518 34,800 720 Climbing Denver Center
12:12AM 41.3144 -99.7147 267° West 449 517 35,600 540 Climbing Denver Center
12:13AM 41.3061 -99.8714 266° West 446 513 36,000 180 Climbing Denver Center
12:14AM 41.2981 -100.0283 266° West 446 513 36,000  Level Denver Center
12:15AM 41.2875 -100.2111 266° West 446 513 36,000  Level Denver Center
12:16AM 41.2781 -100.3686 265° West 448 516 36,000  Level Denver Center
12:17AM 41.2675 -100.5506 266° West 446 513 36,000  Level Denver Center
12:18AM 41.2572 -100.7058 265° West 445 512 36,000  Level Denver Center
12:19AM 41.2486 -100.8625 266° West 446 513 36,000  Level Denver Center
12:20AM 41.2375 -101.0456 265° West 447 514 36,000  Level Denver Center
12:21AM 41.2261 -101.2008 264° West 445 512 36,000  Level Denver Center
12:22AM 41.2153 -101.3833 266° West 445 512 36,000  Level Denver Center
12:23AM 41.2025 -101.5667 265° West 448 516 36,000  Level Denver Center
12:24AM 41.1908 -101.7492 265° West 446 513 36,000  Level Denver Center
12:25AM 41.1794 -101.9056 265° West 445 512 36,000  Level Denver Center
12:26AM 41.1672 -102.0869 265° West 443 510 36,000  Level Denver Center
12:27AM 41.1553 -102.2422 264° West 443 510 36,000  Level Denver Center
12:28AM 41.1417 -102.3983 263° West 445 512 36,000  Level Denver Center
12:29AM 41.1286 -102.5803 265° West 445 512 36,000  Level Denver Center
12:30AM 41.1172 -102.7350 264° West 442 509 36,000  Level Denver Center
12:31AM 41.1033 -102.8922 263° West 448 516 36,000  Level Denver Center
12:32AM 41.1044 -103.0775 271° West 446 513 36,000  Level Denver Center
12:33AM 41.1206 -103.2339 278° West 449 517 36,000  Level Denver Center
12:34AM 41.1358 -103.3908 277° West 448 516 36,000  Level Denver Center
12:35AM 41.1533 -103.5744 277° West 449 517 36,000  Level Denver Center
12:36AM 41.1681 -103.7322 277° West 450 518 36,000  Level Denver Center
12:37AM 41.1833 -103.8894 277° West 450 518 36,000  Level Denver Center
12:38AM 41.1997 -104.0733 277° West 449 517 36,000  Level Denver Center
12:39AM 41.2133 -104.2314 277° West 449 517 36,000  Level Denver Center
12:40AM 41.2272 -104.3897 277° West 450 518 36,000  Level Denver Center
12:41AM 41.2439 -104.5728 277° West 447 514 36,000  Level Denver Center
12:42AM 41.2569 -104.7289 276° West 445 512 36,000  Level Denver Center
12:43AM 41.2708 -104.8864 277° West 447 514 36,000  Level Denver Center
12:44AM 41.2858 -105.0708 276° West 448 516 36,000  Level Denver Center
12:45AM 41.2981 -105.2289 276° West 449 517 36,000  Level Denver Center
12:46AM 41.3108 -105.3867 276° West 449 517 36,000  Level Denver Center
12:47AM 41.3253 -105.5683 276° West 444 511 36,000  Level Denver Center
12:48AM 41.3433 -105.7256 279° West 446 513 36,000  Level Denver Center
12:49AM 41.3861 -105.8772 291° West 456 525 36,000  Level Denver Center
12:51AM 41.4322 -106.0256 293° West 453 521 36,000  Level Denver Center
12:52AM 41.4850 -106.1969 292° West 446 513 36,000  Level Denver Center
12:53AM 41.5311 -106.3464 292° West 452 520 36,000  Level Denver Center
12:54AM 41.5739 -106.4947 291° West 448 516 36,000  Level Denver Center
12:55AM 41.6300 -106.6719 293° West 452 520 36,000  Level Denver Center
12:56AM 41.6742 -106.8189 292° West 448 516 36,000  Level Denver Center
12:57AM 41.7186 -106.9653 292° West 447 514 36,000  Level Denver Center
12:58AM 41.7611 -107.1094 292° West 440 506 36,000  Level Denver Center
12:59AM 41.8117 -107.2781 292° West 436 502 36,000  Level Denver Center
01:00AM 41.8547 -107.4214 292° West 435 501 36,000  Level Denver Center
01:01AM 41.8972 -107.5658 292° West 436 502 36,000  Level Denver Center
01:01AM 41.9292 -107.6844 290° West 430 495 36,000  Level Salt Lake Center
01:02AM 41.9722 -107.8294 292° West 436 502 36,000  Level Salt Lake Center
01:03AM 42.0214 -107.9992 291° West 437 503 36,000  Level Salt Lake Center
01:04AM 42.0639 -108.1472 291° West 441 507 36,000  Level Salt Lake Center
01:05AM 42.1064 -108.2956 291° West 445 512 36,000  Level Salt Lake Center
01:06AM 42.1547 -108.4664 291° West 441 507 36,000  Level Salt Lake Center
01:07AM 42.1967 -108.6139 291° West 441 507 36,000  Level Salt Lake Center
01:08AM 42.2364 -108.7606 290° West 438 504 36,000  Level Salt Lake Center
01:09AM 42.2828 -108.9317 290° West 437 503 36,000  Level Salt Lake Center
01:10AM 42.3239 -109.0803 291° West 442 509 36,000  Level Salt Lake Center
01:11AM 42.3644 -109.2319 290° West 448 516 36,000  Level Salt Lake Center
01:12AM 42.4119 -109.4056 290° West 444 511 36,000  Level Salt Lake Center
01:13AM 42.4528 -109.5556 290° West 445 512 36,000  Level Salt Lake Center
01:14AM 42.4928 -109.7047 290° West 444 511 36,000  Level Salt Lake Center
01:15AM 42.5389 -109.8758 290° West 437 503 36,000  Level Salt Lake Center
01:16AM 42.5781 -110.0233 290° West 435 501 36,000  Level Salt Lake Center
01:17AM 42.6158 -110.1681 290° West 428 493 36,000  Level Salt Lake Center
01:18AM 42.6592 -110.3367 289° West 424 488 36,000  Level Salt Lake Center
01:20AM 42.6972 -110.4817 290° West 425 489 36,000  Level Salt Lake Center
01:21AM 42.7367 -110.6344 289° West 428 493 36,000  Level Salt Lake Center
01:22AM 42.7814 -110.8058 290° West 432 497 36,000  Level Salt Lake Center
01:23AM 42.8189 -110.9528 289° West 431 496 36,000  Level Salt Lake Center
01:24AM 42.8561 -111.0981 289° West 426 490 36,000 -60 Level Salt Lake Center
01:25AM 42.8928 -111.2447 289° West 426 490 35,900  Descending Salt Lake Center
01:26AM 42.9364 -111.4158 289° West 428 493 36,000  Climbing Salt Lake Center
01:27AM 42.9722 -111.5625 289° West 426 490 36,000  Level Salt Lake Center
01:28AM 43.0069 -111.7053 288° West 417 480 36,000 -60 Level Salt Lake Center
01:29AM 43.0483 -111.8697 289° West 410 472 35,900 -60 Descending Salt Lake Center
01:30AM 43.0836 -112.0117 289° West 411 473 35,900  Level Salt Lake Center
01:31AM 43.1178 -112.1542 288° West 413 475 36,000  Climbing Salt Lake Center
01:32AM 43.1569 -112.3214 288° West 413 475 36,000  Level Salt Lake Center
01:33AM 43.1917 -112.4650 288° West 414 476 36,000  Level Salt Lake Center
01:34AM 43.2264 -112.6075 289° West 412 474 36,000  Level Salt Lake Center
01:35AM 43.2653 -112.7747 288° West 412 474 36,000  Level Salt Lake Center
01:36AM 43.2981 -112.9186 287° West 412 474 36,000  Level Salt Lake Center
01:37AM 43.3319 -113.0622 288° West 414 476 36,000  Level Salt Lake Center
01:38AM 43.3714 -113.2311 288° West 416 479 36,000  Level Salt Lake Center
01:39AM 43.4044 -113.3758 287° West 415 478 36,000  Level Salt Lake Center
01:40AM 43.4367 -113.5211 287° West 415 478 36,000  Level Salt Lake Center
01:41AM 43.4703 -113.6653 288° West 415 478 36,000  Level Salt Lake Center
01:42AM 43.5086 -113.8381 287° West 413 475 36,000  Level Salt Lake Center
01:43AM 43.5392 -113.9778 287° West 413 475 36,000  Level Salt Lake Center
01:44AM 43.5761 -114.1456 287° West 412 474 36,000  Level Salt Lake Center
01:45AM 43.6083 -114.2878 287° West 407 468 36,000  Level Salt Lake Center
01:46AM 43.6392 -114.4325 286° West 410 472 36,000  Level Salt Lake Center
01:47AM 43.6761 -114.6003 287° West 410 472 36,000  Level Salt Lake Center
01:48AM 43.7075 -114.7456 287° West 412 474 36,000  Level Salt Lake Center
01:49AM 43.7386 -114.8908 287° West 412 474 36,000  Level Salt Lake Center
01:50AM 43.7681 -115.0356 286° West 409 471 36,000  Level Salt Lake Center
01:51AM 43.8039 -115.2017 287° West 404 465 36,000  Level Salt Lake Center
01:52AM 43.8328 -115.3422 286° West 398 458 36,000  Level Salt Lake Center
01:53AM 43.8622 -115.4839 286° West 398 458 36,000  Level Salt Lake Center
01:54AM 43.8967 -115.6489 286° West 398 458 36,000  Level Salt Lake Center
01:55AM 43.9256 -115.7897 286° West 397 457 36,000  Level Salt Lake Center
01:56AM 43.9536 -115.9306 286° West 395 455 36,000  Level Salt Lake Center
01:57AM 43.9817 -116.0697 286° West 390 449 36,000  Level Salt Lake Center
01:58AM 44.0150 -116.2347 286° West 394 453 36,000  Level Salt Lake Center
01:59AM 44.0431 -116.3769 285° West 396 456 36,000  Level Salt Lake Center
02:00AM 44.0708 -116.5192 285° West 396 456 36,000  Level Salt Lake Center
02:01AM 44.1036 -116.6847 285° West 395 455 36,000  Level Salt Lake Center
02:02AM 44.1319 -116.8272 286° West 398 458 36,000  Level Salt Lake Center
02:03AM 44.1578 -116.9681 284° West 392 451 36,000  Level Salt Lake Center
02:04AM 44.1897 -117.1317 285° West 391 450 36,000  Level Salt Lake Center
02:05AM 44.2169 -117.2736 285° West 394 453 36,000  Level Salt Lake Center
02:06AM 44.2428 -117.4150 284° West 393 452 36,000  Level Salt Lake Center
02:07AM 44.2697 -117.5589 285° West 399 459 36,000  Level Salt Lake Center
02:08AM 44.3006 -117.7264 284° West 398 458 36,000  Level Salt Lake Center
02:09AM 44.3275 -117.8697 285° West 398 458 36,000  Level Salt Lake Center
02:10AM 44.3531 -118.0142 284° West 401 461 36,000  Level Salt Lake Center
02:11AM 44.3756 -118.1333 285° West 400 460 36,000  Level Seattle Center
02:12AM 44.4006 -118.2756 284° West 400 460 36,000  Level Seattle Center
02:13AM 44.4275 -118.4233 284° West 393 452 36,000  Level Seattle Center
02:14AM 44.4536 -118.5703 284° West 391 450 36,000  Level Seattle Center
02:15AM 44.4800 -118.7183 284° West 392 451 36,000  Level Seattle Center
02:16AM 44.5103 -118.8650 286° West 393 452 36,000  Level Seattle Center
02:17AM 44.5669 -119.0006 300° West 405 466 36,000  Level Seattle Center
02:18AM 44.6222 -119.1372 300° West 404 465 36,000  Level Seattle Center
02:19AM 44.6906 -119.3028 300° West 408 470 36,000  Level Seattle Center
02:21AM 44.7797 -119.5008 302° West  Level FlightAware Approximate
02:22AM 44.8589 -119.7281 298° West 417 480 36,000  Level Seattle Center
02:23AM 44.9122 -119.8631 299° West 414 476 36,000  Level Seattle Center
02:24AM 44.9672 -120.0031 299° West 411 473 36,000 -360 Level Seattle Center
02:26AM 45.0658 -120.2316 305° West  Level FlightAware Approximate
02:27AM 45.1325 -120.4281 305° West 417 480 34,700  Level Seattle Center
02:28AM 45.1643 -120.4980 298° West  Level FlightAware Approximate
02:28AM 45.1886 -120.5744 299° West 423 487 31,700  Level Seattle Center
02:29AM 45.2458 -120.7239 299° West 429 494 28,800 -2,760 Descending Seattle Center
02:30AM 45.3014 -120.8703 298° West 422 486 26,200 -2,640 Descending Seattle Center
02:31AM 45.3550 -121.0119 298° West 409 471 23,600 -2,580 Descending Seattle Center
02:32AM 45.4072 -121.1486 299° West 393 452 21,100 -1,680 Descending Seattle Center
02:33AM 45.4364 -121.2803 288° West 345 397 20,300 -900 Descending Seattle Center
02:34AM 45.4519 -121.3983 281° West 305 351 19,300 -1,440 Descending Seattle Center
02:35AM 45.4661 -121.4867 283° West 294 338 18,000 -1,620 Descending Seattle Center
02:35AM 45.4644 -121.5119 265° West 293 337 17,700 -2,040 Descending Seattle Center
02:36AM 45.4783 -121.5958 283° West 281 323 16,000 -2,220 Descending Seattle Center
02:36AM 45.4783 -121.6200 270° West 281 323 15,500 -1,980 Descending Seattle Center
02:37AM 45.4928 -121.7164 282° West 267 307 13,800 -2,040 Descending Seattle Center
02:37AM 45.4950 -121.7442 277° West 268 308 13,500 -1,020 Descending Seattle Center
02:38AM 45.5247 -121.7956 310° West 256 295 12,900 -900 Descending Seattle Center
02:38AM 45.5364 -121.8239 300° West 248 285 12,600 -840 Descending Seattle Center
02:39AM 45.5606 -121.8733 305° West 225 259 12,100 -1,020 Descending Seattle Center
02:39AM 45.5728 -121.8967 307° West 227 261 11,600 -1,380 Descending Seattle Center
02:40AM 45.5969 -121.9444 306° West 219 252 10,700 -1,320 Descending Seattle Center
02:40AM 45.6036 -121.9606 301° West 220 253 10,300 -1,320 Descending Seattle Center
02:41AM 45.6311 -122.0139 306° West 220 253 9,400 -1,320 Descending Seattle Center
02:41AM 45.6367 -122.0317 294° West 219 252 9,000 -1,200 Descending Seattle Center
02:42AM 45.6519 -122.0947 289° West 206 237 8,200 -1,200 Descending Seattle Center
02:42AM 45.6522 -122.1128 271° West 216 249 7,800 -1,260 Descending Seattle Center
02:42AM 45.6608 -122.1686 282° West 213 245 7,100 -840 Descending Seattle Center
02:43AM 45.6625 -122.1950 275° West 212 244 7,000 -420 Descending Seattle Center
02:43AM 45.6711 -122.2508 282° West 213 245 6,700 -900 Descending Seattle Center
02:44AM 45.6744 -122.2778 280° West 213 245 6,100 -1,320 Descending Seattle Center
02:45AM 45.6578 -122.3244 243° Southwest 216 249 5,400 -1,020 Descending Seattle Center
02:45AM 45.6375 -122.3206 172° South 221 254 5,100 -720 Descending Seattle Center
02:45AM 45.6067 -122.3178 176° South 188 216 4,800 -720 Descending Seattle Center
02:46AM 45.5853 -122.3153 175° South 197 227 4,400 -1,020 Descending Seattle Center
02:46AM 45.5583 -122.3256 195° South 175 201 3,800 -1,140 Descending Seattle Center
02:47AM 45.5389 -122.3331 195° South 181 208 3,300 -780 Descending Seattle Center
02:47AM 45.5206 -122.3533 218° Southwest 168 193 3,100 -420 Descending Seattle Center
02:48AM 45.5186 -122.3831 265° West 166 191 2,900 -360 Descending Seattle Center